createdAt,value
2018-08-20T00:02:27.920Z,61.54
2018-08-20T00:04:58.896Z,61.63
2018-08-20T00:07:26.233Z,61.70
2018-08-20T00:09:54.496Z,61.60
2018-08-20T00:12:21.705Z,61.56
2018-08-20T00:14:49.018Z,61.47
2018-08-20T00:17:16.403Z,61.64
2018-08-20T00:19:43.705Z,61.84
2018-08-20T00:22:10.982Z,62.12
2018-08-20T00:24:38.229Z,62.11
2018-08-20T00:27:05.570Z,62.21
2018-08-20T00:29:36.058Z,62.79
2018-08-20T00:32:03.487Z,62.66
2018-08-20T00:34:30.767Z,62.76
2018-08-20T00:36:58.064Z,62.68
2018-08-20T00:39:25.479Z,62.77
2018-08-20T00:41:52.852Z,62.89
2018-08-20T00:44:20.154Z,62.73
2018-08-20T00:46:47.417Z,62.91
2018-08-20T00:49:15.729Z,63.01
2018-08-20T00:51:43.043Z,62.63
2018-08-20T00:54:10.270Z,62.18
2018-08-20T00:56:37.529Z,62.61
2018-08-20T00:59:04.823Z,62.46
2018-08-20T01:01:32.532Z,62.23
2018-08-20T01:04:00.434Z,62.24
2018-08-20T01:06:27.737Z,62.60
2018-08-20T01:08:55.003Z,62.71
2018-08-20T01:11:22.287Z,62.96
2018-08-20T01:13:49.695Z,62.94
2018-08-20T01:16:16.957Z,63.15
2018-08-20T01:18:44.254Z,63.06
2018-08-20T01:21:11.749Z,63.01
2018-08-20T01:23:39.012Z,63.39
2018-08-20T01:26:06.304Z,63.20
2018-08-20T01:28:33.594Z,62.91
2018-08-20T01:31:00.918Z,62.93
2018-08-20T01:33:28.273Z,62.96
2018-08-20T01:35:55.619Z,63.55
2018-08-20T01:38:23.231Z,63.48
2018-08-20T01:40:50.497Z,63.54
2018-08-20T01:43:17.828Z,63.11
2018-08-20T01:45:45.348Z,63.60
2018-08-20T01:48:12.687Z,63.02
2018-08-20T01:50:39.999Z,63.49
2018-08-20T01:53:07.297Z,63.27
2018-08-20T01:55:34.564Z,64.24
2018-08-20T01:58:01.859Z,64.73
2018-08-20T02:00:29.109Z,64.53
2018-08-20T02:03:00.924Z,65.02
2018-08-20T02:05:28.349Z,64.99
2018-08-20T02:07:55.661Z,64.32
2018-08-20T02:10:23.000Z,64.86
2018-08-20T02:12:50.236Z,65.00
2018-08-20T02:15:17.550Z,66.01
2018-08-20T02:17:44.899Z,65.97
2018-08-20T02:20:12.218Z,66.11
2018-08-20T02:22:39.497Z,65.88
2018-08-20T02:25:06.841Z,65.73
2018-08-20T02:27:34.139Z,65.92
2018-08-20T02:30:01.459Z,66.74
2018-08-20T02:32:28.781Z,66.99
2018-08-20T02:34:56.027Z,67.29
2018-08-20T02:37:25.557Z,67.14
2018-08-20T02:39:52.923Z,67.21
2018-08-20T02:42:20.286Z,68.06
2018-08-20T02:44:47.595Z,67.90
2018-08-20T02:47:14.925Z,68.22
2018-08-20T02:49:42.199Z,67.63
2018-08-20T02:52:09.503Z,68.32
2018-08-20T02:54:36.800Z,67.98
2018-08-20T02:57:04.118Z,67.94
2018-08-20T02:59:31.432Z,68.48
2018-08-20T03:01:58.806Z,68.01
2018-08-20T03:04:26.148Z,68.63
2018-08-20T03:06:53.423Z,68.44
2018-08-20T03:09:20.742Z,68.24
2018-08-20T03:11:48.090Z,69.26
2018-08-20T03:14:15.440Z,68.96
2018-08-20T03:16:42.682Z,68.51
2018-08-20T03:19:10.263Z,68.82
2018-08-20T03:21:37.510Z,69.07
2018-08-20T03:25:29.402Z,69.07
2018-08-20T03:27:56.740Z,69.21
2018-08-20T03:30:23.970Z,68.91
2018-08-20T03:32:51.299Z,69.74
2018-08-20T03:35:18.643Z,69.77
2018-08-20T03:37:45.891Z,69.62
2018-08-20T03:40:13.138Z,69.33
2018-08-20T03:42:40.601Z,69.47
2018-08-20T03:45:08.613Z,69.85
2018-08-20T03:47:35.969Z,70.45
2018-08-20T03:50:04.134Z,70.34
2018-08-20T03:52:31.404Z,70.91
2018-08-20T03:54:58.757Z,70.86
2018-08-20T03:57:26.510Z,70.65
2018-08-20T03:59:54.330Z,70.52
2018-08-20T04:02:21.925Z,70.39
2018-08-20T04:04:49.214Z,69.94
2018-08-20T04:07:16.432Z,70.12
2018-08-20T04:09:43.699Z,71.00
2018-08-20T04:12:11.033Z,70.84
2018-08-20T04:14:38.369Z,70.78
2018-08-20T04:17:05.753Z,70.54
2018-08-20T04:19:32.978Z,70.33
2018-08-20T04:22:00.235Z,70.70
2018-08-20T04:24:27.469Z,70.32
2018-08-20T04:26:54.798Z,70.55
2018-08-20T04:29:22.204Z,71.23
2018-08-20T04:31:49.506Z,70.88
2018-08-20T04:34:18.335Z,71.85
2018-08-20T04:36:45.746Z,71.51
2018-08-20T04:39:12.987Z,71.87
2018-08-20T04:41:40.305Z,71.41
2018-08-20T04:44:07.944Z,71.60
2018-08-20T04:46:35.283Z,72.17
2018-08-20T04:49:02.583Z,71.65
2018-08-20T04:51:29.998Z,71.69
2018-08-20T04:53:57.191Z,72.52
2018-08-20T04:56:25.047Z,71.69
2018-08-20T04:58:52.442Z,71.69
2018-08-20T05:01:19.674Z,71.37
2018-08-20T05:03:47.257Z,71.62
2018-08-20T05:06:14.503Z,71.45
2018-08-20T05:08:41.841Z,70.85
2018-08-20T05:11:09.090Z,69.94
2018-08-20T05:13:36.308Z,70.97
2018-08-20T05:16:03.569Z,71.75
2018-08-20T05:18:30.895Z,72.37
2018-08-20T05:20:58.195Z,71.54
2018-08-20T05:23:25.477Z,70.45
2018-08-20T05:27:17.357Z,70.64
2018-08-20T05:29:48.879Z,70.58
2018-08-20T05:32:16.318Z,71.13
2018-08-20T05:34:43.591Z,71.43
2018-08-20T05:37:10.888Z,70.71
2018-08-20T05:39:38.214Z,70.36
2018-08-20T05:42:05.639Z,69.99
2018-08-20T05:44:32.956Z,69.95
2018-08-20T05:47:00.279Z,68.62
2018-08-20T05:49:27.665Z,68.22
2018-08-20T05:51:55.053Z,67.47
2018-08-20T05:54:22.361Z,67.01
2018-08-20T05:56:49.751Z,67.42
2018-08-20T05:59:17.148Z,67.58
2018-08-20T06:01:44.493Z,67.55
2018-08-20T06:04:11.749Z,66.72
2018-08-20T06:06:38.982Z,67.01
2018-08-20T06:09:07.534Z,65.58
2018-08-20T06:11:34.830Z,64.91
2018-08-20T06:14:02.232Z,65.68
2018-08-20T06:16:29.554Z,66.32
2018-08-20T06:18:57.049Z,65.66
2018-08-20T06:21:24.391Z,65.06
2018-08-20T06:23:51.702Z,65.13
2018-08-20T06:26:19.088Z,63.87
2018-08-20T06:28:46.430Z,64.94
2018-08-20T06:31:13.685Z,64.01
2018-08-20T06:33:40.983Z,64.43
2018-08-20T06:36:08.244Z,64.38
2018-08-20T06:38:35.565Z,64.08
2018-08-20T06:41:02.918Z,64.02
2018-08-20T06:43:30.178Z,63.37
2018-08-20T06:45:57.458Z,63.46
2018-08-20T06:48:24.733Z,63.22
2018-08-20T06:50:51.977Z,62.59
2018-08-20T06:53:19.315Z,63.03
2018-08-20T06:55:46.687Z,63.46
2018-08-20T06:58:13.893Z,62.79
2018-08-20T07:00:41.159Z,62.51
2018-08-20T07:03:08.551Z,61.80
2018-08-20T07:05:35.832Z,61.53
2018-08-20T07:08:03.157Z,61.52
2018-08-20T07:10:36.146Z,61.06
2018-08-20T07:13:14.679Z,59.89
2018-08-20T07:15:42.088Z,59.25
2018-08-20T07:18:09.644Z,58.14
2018-08-20T07:20:36.963Z,56.69
2018-08-20T07:23:04.274Z,56.98
2018-08-20T07:25:31.537Z,55.56
2018-08-20T07:27:58.839Z,54.94
2018-08-20T07:30:26.040Z,53.96
2018-08-20T07:32:53.368Z,53.35
2018-08-20T07:35:20.588Z,51.55
2018-08-20T07:37:47.821Z,51.98
2018-08-20T07:40:16.788Z,50.61
2018-08-20T07:42:44.254Z,50.19
2018-08-20T07:45:11.525Z,50.56
2018-08-20T07:47:38.824Z,50.11
2018-08-20T07:50:06.209Z,50.10
2018-08-20T07:52:33.517Z,49.59
2018-08-20T07:55:00.877Z,50.30
2018-08-20T07:57:28.171Z,51.02
2018-08-20T07:59:55.523Z,50.71
2018-08-20T08:02:22.868Z,51.73
2018-08-20T08:04:50.148Z,51.86
2018-08-20T08:07:17.448Z,51.76
2018-08-20T08:09:44.805Z,53.06
2018-08-20T08:12:12.113Z,52.68
2018-08-20T08:14:39.448Z,52.38
2018-08-20T08:17:06.782Z,51.52
2018-08-20T08:19:34.194Z,51.42
2018-08-20T08:22:01.886Z,51.20
2018-08-20T08:25:31.916Z,50.58
2018-08-20T08:27:59.249Z,50.03
2018-08-20T08:30:26.592Z,49.29
2018-08-20T08:32:53.850Z,49.10
2018-08-20T08:35:21.186Z,49.72
2018-08-20T08:37:48.696Z,49.49
2018-08-20T08:40:16.073Z,48.14
2018-08-20T08:42:43.589Z,48.57
2018-08-20T08:45:14.942Z,49.15
2018-08-20T08:47:42.657Z,48.03
2018-08-20T08:50:09.962Z,47.20
2018-08-20T08:52:37.240Z,47.61
2018-08-20T08:55:05.228Z,46.79
2018-08-20T08:57:32.439Z,46.13
2018-08-20T08:59:59.784Z,47.19
2018-08-20T09:02:27.124Z,47.75
2018-08-20T09:04:54.506Z,46.65
2018-08-20T09:07:21.752Z,47.93
2018-08-20T09:09:48.981Z,47.83
2018-08-20T09:12:16.252Z,46.69
2018-08-20T09:14:43.598Z,45.08
2018-08-20T09:17:10.871Z,45.33
2018-08-20T09:19:38.216Z,45.73
2018-08-20T09:22:05.712Z,44.92
2018-08-20T09:24:33.015Z,43.38
2018-08-20T09:27:00.313Z,44.08
2018-08-20T09:29:27.583Z,44.92
2018-08-20T09:31:54.880Z,43.76
2018-08-20T09:34:22.475Z,45.33
2018-08-20T09:36:49.788Z,44.97
2018-08-20T09:39:17.072Z,44.24
2018-08-20T09:41:44.356Z,44.31
2018-08-20T09:44:11.655Z,44.80
2018-08-20T09:46:38.921Z,44.61
2018-08-20T09:49:06.218Z,43.27
2018-08-20T09:51:34.293Z,43.01
2018-08-20T09:54:02.065Z,42.39
2018-08-20T09:56:29.498Z,43.26
2018-08-20T09:58:56.913Z,42.47
2018-08-20T10:01:24.228Z,42.38
2018-08-20T10:03:51.617Z,41.34
2018-08-20T10:06:18.920Z,41.33
2018-08-20T10:08:46.205Z,41.55
2018-08-20T10:11:13.655Z,41.27
2018-08-20T10:13:41.665Z,42.11
2018-08-20T10:16:09.167Z,44.01
2018-08-20T10:18:37.032Z,43.58
2018-08-20T10:21:04.377Z,43.98
2018-08-20T10:23:31.699Z,43.42
2018-08-20T10:25:59.031Z,42.66
2018-08-20T10:28:26.363Z,40.87
2018-08-20T10:30:53.747Z,40.49
2018-08-20T10:33:21.000Z,40.49
2018-08-20T10:35:48.293Z,41.90
2018-08-20T10:38:15.479Z,40.42
2018-08-20T10:40:42.807Z,40.67
2018-08-20T10:43:10.097Z,41.50
2018-08-20T10:45:43.090Z,41.77
2018-08-20T10:48:10.560Z,41.73
2018-08-20T10:50:37.893Z,41.92
2018-08-20T10:53:05.489Z,39.48
2018-08-20T10:55:32.816Z,38.75
2018-08-20T10:58:00.077Z,39.71
2018-08-20T11:00:27.404Z,39.22
2018-08-20T11:02:54.696Z,39.08
2018-08-20T11:05:22.129Z,38.45
2018-08-20T11:07:49.444Z,39.01
2018-08-20T11:10:16.792Z,39.16
2018-08-20T11:12:44.133Z,38.74
2018-08-20T11:15:11.729Z,39.48
2018-08-20T11:17:39.112Z,39.54
2018-08-20T11:20:10.624Z,37.57
2018-08-20T11:22:37.950Z,38.33
2018-08-20T11:25:06.094Z,38.65
2018-08-20T11:27:33.459Z,38.10
2018-08-20T11:30:00.726Z,38.48
2018-08-20T11:32:28.093Z,37.52
2018-08-20T11:34:55.506Z,37.64
2018-08-20T11:37:23.209Z,37.58
2018-08-20T11:39:50.463Z,37.06
2018-08-20T11:42:17.748Z,36.66
2018-08-20T11:44:57.912Z,38.36
2018-08-20T11:47:25.255Z,37.99
2018-08-20T11:49:52.587Z,37.99
2018-08-20T11:52:19.845Z,36.73
2018-08-20T11:54:47.313Z,35.87
2018-08-20T11:57:14.615Z,36.76
2018-08-20T11:59:41.937Z,36.16
2018-08-20T12:02:09.479Z,34.05
2018-08-20T12:04:36.826Z,35.98
2018-08-20T12:07:04.145Z,35.55
2018-08-20T12:09:31.503Z,35.30
2018-08-20T12:11:58.984Z,34.58
2018-08-20T12:14:26.275Z,33.34
2018-08-20T12:16:53.591Z,33.46
2018-08-20T12:19:20.833Z,33.65
2018-08-20T12:21:48.146Z,35.62
2018-08-20T12:24:15.495Z,35.75
2018-08-20T12:26:42.854Z,34.69
2018-08-20T12:29:10.906Z,35.35
2018-08-20T12:31:38.171Z,34.54
2018-08-20T12:34:05.468Z,34.61
2018-08-20T12:36:32.762Z,34.73
2018-08-20T12:39:00.122Z,34.41
2018-08-20T12:41:27.410Z,33.07
2018-08-20T12:43:54.640Z,33.05
2018-08-20T12:46:21.920Z,32.38
2018-08-20T12:48:50.919Z,32.64
2018-08-20T12:51:18.847Z,31.10
2018-08-20T12:53:46.208Z,31.90
2018-08-20T12:56:13.557Z,30.66
2018-08-20T12:58:52.213Z,32.08
2018-08-20T13:01:19.628Z,32.19
2018-08-20T13:03:47.498Z,31.11
2018-08-20T13:06:14.761Z,31.29
2018-08-20T13:08:42.091Z,31.07
2018-08-20T13:11:09.428Z,31.17
2018-08-20T13:13:36.664Z,31.09
2018-08-20T13:16:04.101Z,32.22
2018-08-20T13:18:32.050Z,31.83
2018-08-20T13:20:59.393Z,31.37
2018-08-20T13:23:26.676Z,31.82
2018-08-20T13:25:54.125Z,32.06
2018-08-20T13:28:21.433Z,32.48
2018-08-20T13:30:48.754Z,32.61
2018-08-20T13:33:16.230Z,31.50
2018-08-20T13:35:43.596Z,32.67
2018-08-20T13:38:10.912Z,33.29
2018-08-20T13:40:38.345Z,33.65
2018-08-20T13:43:06.041Z,34.08
2018-08-20T13:45:33.429Z,33.72
2018-08-20T13:48:00.874Z,32.71
2018-08-20T13:50:28.194Z,33.38
2018-08-20T13:52:55.556Z,32.70
2018-08-20T13:55:22.940Z,32.68
2018-08-20T13:57:50.305Z,33.05
2018-08-20T14:00:18.810Z,32.85
2018-08-20T14:02:46.202Z,33.21
2018-08-20T14:05:14.462Z,33.00
2018-08-20T14:07:42.482Z,33.70
2018-08-20T14:10:10.898Z,34.22
2018-08-20T14:12:39.067Z,32.89
2018-08-20T14:15:07.227Z,32.76
2018-08-20T14:17:34.609Z,32.76
2018-08-20T14:20:02.027Z,32.53
2018-08-20T14:22:29.368Z,32.95
2018-08-20T14:24:56.754Z,33.31
2018-08-20T14:27:24.214Z,32.58
2018-08-20T14:29:51.536Z,34.01
2018-08-20T14:32:18.799Z,33.22
2018-08-20T14:34:46.147Z,33.25
2018-08-20T14:37:13.504Z,33.24
2018-08-20T14:39:40.787Z,33.71
2018-08-20T14:42:08.217Z,33.30
2018-08-20T14:44:35.609Z,32.93
2018-08-20T14:47:03.050Z,33.49
2018-08-20T14:49:30.416Z,32.40
2018-08-20T14:51:57.849Z,33.10
2018-08-20T14:54:25.746Z,32.34
2018-08-20T14:56:53.080Z,31.14
2018-08-20T14:59:20.442Z,32.08
2018-08-20T15:01:47.700Z,32.04
2018-08-20T15:04:15.007Z,32.21
2018-08-20T15:06:56.832Z,31.08
2018-08-20T15:09:24.843Z,31.28
2018-08-20T15:11:52.265Z,29.99
2018-08-20T15:14:19.550Z,29.85
2018-08-20T15:16:46.862Z,30.50
2018-08-20T15:19:14.222Z,30.80
2018-08-20T15:21:41.518Z,30.05
2018-08-20T15:24:08.776Z,30.03
2018-08-20T15:26:36.081Z,31.32
2018-08-20T15:29:03.405Z,32.57
2018-08-20T15:31:30.682Z,34.06
2018-08-20T15:33:58.015Z,34.58
2018-08-20T15:36:25.290Z,35.02
2018-08-20T15:38:52.807Z,34.21
2018-08-20T15:41:20.065Z,33.63
2018-08-20T15:43:47.360Z,33.00
2018-08-20T15:46:14.710Z,34.02
2018-08-20T15:48:41.953Z,34.39
2018-08-20T15:51:09.303Z,33.65
2018-08-20T15:53:36.695Z,34.50
2018-08-20T15:56:04.061Z,35.02
2018-08-20T15:58:31.485Z,34.50
2018-08-20T16:00:58.754Z,34.68
2018-08-20T16:03:26.020Z,36.42
2018-08-20T16:05:53.327Z,36.58
2018-08-20T16:08:20.655Z,36.47
2018-08-20T16:10:47.990Z,37.73
2018-08-20T16:13:15.210Z,36.52
2018-08-20T16:15:42.496Z,36.55
2018-08-20T16:18:09.785Z,36.37
2018-08-20T16:20:37.064Z,37.70
2018-08-20T16:23:04.752Z,37.44
2018-08-20T16:25:31.984Z,38.26
2018-08-20T16:27:59.311Z,38.19
2018-08-20T16:30:26.604Z,36.81
2018-08-20T16:32:53.919Z,37.78
2018-08-20T16:35:21.185Z,37.51
2018-08-20T16:37:48.405Z,37.40
2018-08-20T16:40:15.733Z,37.91
2018-08-20T16:42:43.077Z,37.30
2018-08-20T16:45:10.442Z,37.83
2018-08-20T16:47:38.025Z,39.25
2018-08-20T16:50:06.919Z,38.77
2018-08-20T16:52:34.367Z,39.44
2018-08-20T16:55:01.694Z,38.82
2018-08-20T16:57:29.138Z,39.17
2018-08-20T16:59:56.409Z,39.66
2018-08-20T17:02:27.544Z,40.08
2018-08-20T17:04:54.832Z,40.94
2018-08-20T17:07:22.154Z,41.25
2018-08-20T17:09:49.405Z,41.73
2018-08-20T17:12:16.704Z,41.79
2018-08-20T17:14:43.991Z,43.46
2018-08-20T17:17:11.291Z,43.32
2018-08-20T17:19:38.690Z,43.67
2018-08-20T17:22:06.162Z,44.13
2018-08-20T17:24:37.521Z,45.00
2018-08-20T17:27:04.885Z,45.07
2018-08-20T17:29:32.140Z,45.39
2018-08-20T17:32:00.925Z,46.71
2018-08-20T17:34:28.197Z,46.50
2018-08-20T17:36:55.584Z,47.13
2018-08-20T17:39:30.765Z,47.82
2018-08-20T17:42:00.521Z,48.09
2018-08-20T17:44:35.148Z,48.10
2018-08-20T17:49:54.633Z,49.07
2018-08-20T17:52:25.947Z,48.72
2018-08-20T17:54:53.223Z,49.38
2018-08-20T17:57:20.539Z,48.82
2018-08-20T17:59:47.805Z,48.78
2018-08-20T18:02:19.767Z,49.68
2018-08-20T18:04:48.430Z,49.42
2018-08-20T18:07:15.720Z,49.83
2018-08-20T18:09:43.044Z,49.30
2018-08-20T18:12:10.436Z,50.29
2018-08-20T18:14:37.633Z,50.35
2018-08-20T18:17:04.976Z,51.50
2018-08-20T18:19:32.180Z,51.06
2018-08-20T18:21:59.454Z,51.55
2018-08-20T18:24:26.782Z,50.99
2018-08-20T18:26:55.387Z,51.56
2018-08-20T18:29:22.624Z,51.67
2018-08-20T18:31:51.472Z,51.48
2018-08-20T18:34:19.341Z,51.17
2018-08-20T18:36:46.702Z,52.13
2018-08-20T18:39:14.151Z,52.40
2018-08-20T18:42:13.208Z,52.08
2018-08-20T18:44:40.555Z,52.25
2018-08-20T18:47:08.934Z,52.03
2018-08-20T18:49:45.778Z,53.08
2018-08-20T18:52:13.479Z,52.91
2018-08-20T18:54:47.785Z,52.77
2018-08-20T18:57:15.877Z,52.89
2018-08-20T18:59:43.267Z,52.88
2018-08-20T19:02:24.482Z,53.89
2018-08-20T19:04:51.784Z,53.42
2018-08-20T19:07:19.089Z,54.44
2018-08-20T19:09:47.445Z,54.50
2018-08-20T19:12:14.935Z,54.54
2018-08-20T19:14:42.266Z,54.52
2018-08-20T19:17:15.389Z,55.09
2018-08-20T19:19:46.761Z,54.63
2018-08-20T19:22:19.546Z,54.67
2018-08-20T19:24:46.899Z,55.60
2018-08-20T19:27:14.204Z,55.29
2018-08-20T19:29:47.328Z,55.28
2018-08-20T19:32:14.958Z,55.29
2018-08-20T19:34:42.237Z,56.03
2018-08-20T19:37:09.560Z,55.65
2018-08-20T19:39:36.823Z,55.53
2018-08-20T19:42:04.701Z,55.95
2018-08-20T19:44:31.968Z,56.05
2018-08-20T19:46:59.272Z,56.13
2018-08-20T19:49:26.557Z,56.13
2018-08-20T19:51:53.895Z,57.17
2018-08-20T19:54:21.251Z,56.92
2018-08-20T19:56:49.119Z,56.66
2018-08-20T19:59:24.895Z,57.56
2018-08-20T20:01:52.547Z,58.04
2018-08-20T20:04:19.939Z,58.08
2018-08-20T20:06:47.997Z,57.69
2018-08-20T20:09:16.284Z,58.06
2018-08-20T20:11:46.258Z,58.39
2018-08-20T20:14:13.756Z,58.72
2018-08-20T20:16:46.651Z,58.81
2018-08-20T20:19:14.000Z,59.21
2018-08-20T20:21:41.420Z,59.24
2018-08-20T20:24:09.412Z,59.20
2018-08-20T20:26:36.751Z,59.07
2018-08-20T20:29:05.058Z,60.42
2018-08-20T20:31:32.393Z,60.27
2018-08-20T20:33:59.771Z,60.74
2018-08-20T20:36:29.240Z,60.94
2018-08-20T20:38:56.688Z,60.20
2018-08-20T20:41:24.095Z,60.85
2018-08-20T20:43:51.813Z,60.91
2018-08-20T20:46:19.215Z,61.74
2018-08-20T20:48:46.500Z,61.82
2018-08-20T20:51:13.852Z,61.42
2018-08-20T20:53:41.225Z,62.00
2018-08-20T20:57:33.076Z,62.44
2018-08-20T21:00:01.239Z,63.34
2018-08-20T21:02:45.487Z,63.02
2018-08-20T21:05:12.868Z,62.53
2018-08-20T21:07:40.214Z,63.24
2018-08-20T21:10:07.875Z,63.54
2018-08-20T21:12:35.202Z,62.74
2018-08-20T21:15:02.587Z,63.02
2018-08-20T21:17:32.408Z,62.79
2018-08-20T21:19:59.777Z,62.86
2018-08-20T21:22:27.170Z,62.99
2018-08-20T21:24:54.516Z,63.61
2018-08-20T21:27:25.757Z,63.52
2018-08-20T21:29:55.369Z,64.34
2018-08-20T21:32:22.818Z,64.05
2018-08-20T21:34:50.185Z,64.51
2018-08-20T21:37:17.489Z,64.23
2018-08-20T21:39:44.804Z,65.15
2018-08-20T21:42:12.113Z,65.01
2018-08-20T21:44:39.450Z,64.38
2018-08-20T21:47:19.622Z,64.57
2018-08-20T21:49:46.857Z,65.26
2018-08-20T21:52:14.200Z,65.02
2018-08-20T21:54:41.519Z,65.60
2018-08-20T21:57:08.839Z,65.73
2018-08-20T21:59:36.318Z,65.84
2018-08-20T22:02:03.647Z,65.77
2018-08-20T22:04:32.616Z,65.82
2018-08-20T22:06:59.939Z,65.81
2018-08-20T22:09:27.211Z,66.12
2018-08-20T22:11:55.856Z,66.39
2018-08-20T22:14:23.285Z,66.22
2018-08-20T22:16:50.606Z,66.64
2018-08-20T22:19:17.930Z,66.67
2018-08-20T22:21:45.336Z,66.71
2018-08-20T22:24:12.635Z,66.97
2018-08-20T22:26:44.960Z,66.90
2018-08-20T22:29:12.571Z,67.18
2018-08-20T22:31:44.477Z,67.54
2018-08-20T22:34:13.501Z,66.71
2018-08-20T22:36:40.901Z,67.36
2018-08-20T22:39:08.304Z,66.85
2018-08-20T22:41:35.558Z,67.59
2018-08-20T22:44:02.968Z,67.56
2018-08-20T22:46:30.222Z,67.46
2018-08-20T22:48:58.634Z,67.26
2018-08-20T22:51:27.988Z,67.39
2018-08-20T22:53:58.626Z,67.90
2018-08-20T22:56:29.230Z,68.39
2018-08-20T22:59:01.737Z,68.46
2018-08-20T23:01:29.232Z,68.96
2018-08-20T23:03:56.668Z,69.02
2018-08-20T23:06:24.267Z,69.51
2018-08-20T23:08:51.680Z,69.41
2018-08-20T23:11:40.853Z,69.51
2018-08-20T23:14:09.636Z,69.42
2018-08-20T23:16:37.247Z,69.46
2018-08-20T23:19:04.699Z,69.82
2018-08-20T23:21:37.323Z,70.31
2018-08-20T23:24:05.124Z,70.07
2018-08-20T23:26:32.476Z,70.05
2018-08-20T23:28:59.752Z,70.00
2018-08-20T23:31:27.047Z,70.23
2018-08-20T23:33:54.317Z,70.35
2018-08-20T23:36:21.603Z,69.23
2018-08-20T23:38:48.921Z,68.60
2018-08-20T23:41:16.154Z,69.75
2018-08-20T23:43:51.805Z,70.44
2018-08-20T23:46:44.049Z,70.93
2018-08-20T23:49:11.399Z,71.29
2018-08-20T23:51:38.754Z,71.83
2018-08-20T23:54:06.126Z,71.51
2018-08-20T23:56:33.480Z,70.87
2018-08-20T23:59:00.797Z,70.69
